TRN41 YSSY-YSRI
Flight info
| Callsign | TRN41 |
|---|---|
| Flight time | N/A |
| Altitude | 4000 |
| Route | YSSY DCT YSRI |
| Aircraft | PC21/L-SDGRY/C |
Departure
| Time | 2026-05-04 05:12 |
|---|---|
| Airport | Sydney Kingsford Smith International Airport (YSSY) |
Arrival
| Time | N/A |
|---|---|
| Airport | RAAF Base Richmond (YSRI) |
| Time | Latitude | Longitude | Altitude | Speed | Heading |
|---|---|---|---|---|---|
| 2026-05-04 05:02 | -33.94347 | 151.18036 | 26 ft | 0 kts | 166° |
| 2026-05-04 05:09 | -33.94282 | 151.17872 | 25 ft | 13 kts | 212° |
| 2026-05-04 05:09 | -33.94329 | 151.17786 | 27 ft | 16 kts | 251° |
| 2026-05-04 05:10 | -33.94347 | 151.17719 | 25 ft | 12 kts | 254° |
| 2026-05-04 05:10 | -33.94361 | 151.17659 | 25 ft | 0 kts | 254° |
| 2026-05-04 05:11 | -33.94374 | 151.17600 | 28 ft | 10 kts | 262° |
| 2026-05-04 05:12 | -33.94328 | 151.17520 | 26 ft | 21 kts | 348° |
| 2026-05-04 05:12 | -33.93882 | 151.17408 | 31 ft | 105 kts | 349° |
| 2026-05-04 05:12 | -33.92998 | 151.17126 | 428 ft | 156 kts | 337° |
| 2026-05-04 05:12 | -33.92422 | 151.15902 | 1158 ft | 193 kts | 275° |
| 2026-05-04 05:13 | -33.92547 | 151.14253 | 2206 ft | 201 kts | 269° |
| 2026-05-04 05:13 | -33.92628 | 151.12588 | 3049 ft | 204 kts | 286° |
| 2026-05-04 05:13 | -33.92296 | 151.10859 | 3755 ft | 225 kts | 296° |
| 2026-05-04 05:13 | -33.91538 | 151.09266 | 3731 ft | 223 kts | 304° |
| 2026-05-04 05:14 | -33.90729 | 151.07683 | 3697 ft | 223 kts | 303° |
| 2026-05-04 05:14 | -33.89818 | 151.06090 | 3707 ft | 246 kts | 308° |
| 2026-05-04 05:14 | -33.88724 | 151.04378 | 3892 ft | 266 kts | 309° |
| 2026-05-04 05:14 | -33.87525 | 151.02611 | 3926 ft | 280 kts | 313° |
| 2026-05-04 05:15 | -33.85988 | 151.01089 | 3758 ft | 288 kts | 322° |
| 2026-05-04 05:15 | -33.84472 | 150.99781 | 3656 ft | 244 kts | 325° |
| 2026-05-04 05:15 | -33.83227 | 150.98722 | 4047 ft | 223 kts | 322° |
| 2026-05-04 05:15 | -33.81931 | 150.97489 | 4066 ft | 250 kts | 323° |
| 2026-05-04 05:16 | -33.80569 | 150.96249 | 3909 ft | 233 kts | 322° |
| 2026-05-04 05:16 | -33.79262 | 150.95095 | 3346 ft | 231 kts | 324° |
| 2026-05-04 05:16 | -33.77861 | 150.93969 | 2664 ft | 269 kts | 329° |
| 2026-05-04 05:16 | -33.76204 | 150.92852 | 2389 ft | 262 kts | 333° |
| 2026-05-04 05:17 | -33.74557 | 150.91831 | 1914 ft | 283 kts | 329° |
| 2026-05-04 05:17 | -33.72780 | 150.90824 | 1687 ft | 265 kts | 339° |
| 2026-05-04 05:17 | -33.71166 | 150.90051 | 1533 ft | 243 kts | 339° |
| 2026-05-04 05:17 | -33.69596 | 150.89180 | 1401 ft | 261 kts | 334° |
| 2026-05-04 05:18 | -33.68081 | 150.88132 | 1544 ft | 247 kts | 315° |
| 2026-05-04 05:18 | -33.66624 | 150.87033 | 1479 ft | 237 kts | 338° |
| 2026-05-04 05:18 | -33.65184 | 150.86353 | 1368 ft | 217 kts | 341° |
| 2026-05-04 05:18 | -33.63927 | 150.85730 | 1429 ft | 155 kts | 337° |
| 2026-05-04 05:19 | -33.62987 | 150.85061 | 1224 ft | 167 kts | 326° |
| 2026-05-04 05:19 | -33.62132 | 150.84136 | 981 ft | 161 kts | 314° |
| 2026-05-04 05:19 | -33.61625 | 150.82862 | 794 ft | 178 kts | 293° |
| 2026-05-04 05:19 | -33.61424 | 150.81987 | 643 ft | 151 kts | 289° |
| 2026-05-04 05:20 | -33.61010 | 150.80435 | 340 ft | 138 kts | 292° |
| 2026-05-04 05:20 | -33.60744 | 150.79356 | 123 ft | 129 kts | 293° |
| 2026-05-04 05:20 | -33.60509 | 150.78443 | 90 ft | 111 kts | 295° |
| 2026-05-04 05:20 | -33.60220 | 150.77466 | 450 ft | 138 kts | 296° |
| 2026-05-04 05:21 | -33.60577 | 150.76438 | 702 ft | 159 kts | 201° |
| 2026-05-04 05:21 | -33.61519 | 150.76867 | 863 ft | 142 kts | 121° |
| 2026-05-04 05:21 | -33.61916 | 150.77880 | 691 ft | 140 kts | 108° |
| 2026-05-04 05:21 | -33.62277 | 150.78875 | 861 ft | 115 kts | 107° |
| 2026-05-04 05:22 | -33.62405 | 150.79470 | 885 ft | 109 kts | 86° |
| 2026-05-04 05:22 | -33.62201 | 150.80305 | 749 ft | 104 kts | 50° |
| 2026-05-04 05:22 | -33.61662 | 150.80796 | 623 ft | 101 kts | 20° |
| 2026-05-04 05:22 | -33.60996 | 150.80562 | 312 ft | 112 kts | 309° |
| 2026-05-04 05:23 | -33.60886 | 150.79632 | 231 ft | 101 kts | 294° |
| 2026-05-04 05:23 | -33.60637 | 150.78843 | 153 ft | 114 kts | 295° |
| 2026-05-04 05:23 | -33.60305 | 150.77626 | 279 ft | 188 kts | 286° |
| 2026-05-04 05:23 | -33.60429 | 150.76076 | 937 ft | 223 kts | 211° |
| 2026-05-04 05:24 | -33.61715 | 150.76611 | 1333 ft | 209 kts | 105° |
| 2026-05-04 05:24 | -33.62084 | 150.78239 | 1214 ft | 200 kts | 106° |
| 2026-05-04 05:24 | -33.62553 | 150.79775 | 1566 ft | 150 kts | 99° |
| 2026-05-04 05:24 | -33.62844 | 150.80891 | 1368 ft | 135 kts | 89° |
| 2026-05-04 05:25 | -33.62521 | 150.81762 | 1010 ft | 115 kts | 26° |
| 2026-05-04 05:25 | -33.61723 | 150.81704 | 558 ft | 131 kts | 329° |
| 2026-05-04 05:25 | -33.61270 | 150.80699 | 339 ft | 140 kts | 292° |
| 2026-05-04 05:25 | -33.60848 | 150.79839 | 211 ft | 112 kts | 297° |
| 2026-05-04 05:26 | -33.60642 | 150.78933 | 90 ft | 105 kts | 288° |